默认 日期 大小 文件数 浏览量 最新下载 xml
monkeys磁力链接相关资源由用户搜索指令自动获取,结果来源于网络,本站不存储任何资料,亦不承担任何责任,请于24小时内删除,搜索到3101个磁力,用时3ms。
    {"front.jpg": 63592, "01 Intro.mp3": 6232994, "06 Doors.mp3": 3127558, "12 Spit.mp3": 13047818, "07 Sex ball.mp3": 25651384, "08 I'm picky.mp3": 9695794, "09 Let's bang.mp3": 12108466, "11 I'm a lady.mp3": 17237871, "02 Shiza radio.mp3": 11400027, "05 ...
创建时间: 2018-11-01 03:31:26 大小:130.93 MB 文件数量:13 热度:19 最近下载:2025-08-01 18:17:02
    ... ": 10660177, "08. Jericho Jones - Junkies, Monkeys & Donkeys.mp3": 18233597, "11. Jericho ...
创建时间: 2018-11-01 04:17:42 大小:138.57 MB 文件数量:21 热度:14 最近下载:2025-08-09 09:30:03
    {"RARBG.com.txt": 34, "12.Monkeys.S02E06.720p.HDTV.x264-FLEET.mkv": 705713001, "12.monkeys.s02e06.720p.hdtv.x264-fleet.nfo": 696}
创建时间: 2018-11-01 05:01:37 大小:673.02 MB 文件数量:3 热度:11 最近下载:2023-04-03 20:20:12
创建时间: 2018-11-01 05:11:42 大小:19.16 GB 文件数量:2 热度:27 最近下载:2025-05-17 00:45:02
    {"Sample": {"Twelve.Monkeys.1995.576p.BRRIP.x264.AAC-GOD.sample.mkv": 27478942}, "Twelve.Monkeys.1995.576p.BRRIP.x264.AAC-GOD.avs": 576, "Twelve.Monkeys.1995.576p.BRRIP.x264.AAC-GOD.mkv": 2932474121}
创建时间: 2018-11-01 05:30:04 大小:2.76 GB 文件数量:3 热度:12 最近下载:2023-04-03 22:10:02
    {"[2013] AM": {"Folder.jpg": 12050, "13 2013.mp3": 6165615, "02 R U Mine.mp3": 6933705, "04 Arabella.mp3": 6515776, "08 Fireside.mp3": 6182965, "07 Mad Sounds.mp3": 6170672, "11 Knee Socks.mp3": 8372980, "AlbumArtSmall.jpg": 3164, "05 I Want It All.mp3": ...
创建时间: 2018-11-01 05:44:47 大小:442.94 MB 文件数量:92 热度:10 最近下载:2023-04-03 23:00:17
    {"RARBG.txt": 30, "12.Monkeys.S04E03.45.RPM.1080p.AMZN.WEB-DL.DDP5.1.H.264-NTG.mkv": 3091529944}
创建时间: 2018-11-01 05:47:48 大小:2.88 GB 文件数量:2 热度:12 最近下载:2024-12-21 12:58:05
    {"Downloaded from www.ETTV.tv .txt": 179, "12.Monkeys.S04E01.720p.HDTV.x264-KILLERS[ettv].mkv": 925307047}
创建时间: 2018-11-01 05:59:50 大小:882.44 MB 文件数量:2 热度:11 最近下载:2023-04-09 13:40:02
    ... .mkv": 1196847131, "12.Monkeys.S04E02.720p.ColdFilm.mkv": ... 1212653331, "12.Monkeys.S04E03.720p.ColdFilm.mkv": ... 1204131961, "12.Monkeys.S04E04.720p.ColdFilm.mkv": ... ColdFilm.mkv": 1194771852, "12.Monkeys.S04E09.720p.ColdFilm.mkv": 1185191703 ...
创建时间: 2018-11-01 06:51:23 大小:10.06 GB 文件数量:9 热度:10 最近下载:2023-04-14 21:30:08
    {"12.monkeys.s02e05.french.hdtv.x264-fries.mkv": 249510425, "12.monkeys.s02e05.french.hdtv.x264-fries.nfo": 4098}
创建时间: 2018-11-01 07:19:58 大小:237.96 MB 文件数量:2 热度:10 最近下载:2023-04-04 02:10:02
    {"12.Monkeys.S02E12.WEB-DL.XviD-FUM[ettv].avi": 365084616, "Torrent-Downloaded-from-ExtraTorrent.cc.txt": 289}
创建时间: 2018-11-01 08:49:49 大小:348.17 MB 文件数量:2 热度:13 最近下载:2024-12-19 19:53:03
    ... .Speed.cd.txt": 97, "12.Monkeys.S04E02.Ouroboros.1080p.AMZN.WEB ... .264-NTG.mkv": 3809712146, "12.Monkeys.S04E02.Ouroboros.1080p.AMZN.WEB ...
创建时间: 2018-11-01 09:21:30 大小:3.56 GB 文件数量:7 热度:19 最近下载:2025-08-05 20:05:04
    {"12.Monkeys.S04E04.720p.ColdFilm.mkv": 1216452004, "12.Monkeys.S04E05.720p.ColdFilm.mkv": 1193284063, "12.Monkeys.S04E06.720p.ColdFilm.mkv": 1199137397}
创建时间: 2018-11-01 09:37:28 大小:3.36 GB 文件数量:3 热度:11 最近下载:2024-11-16 10:05:01
    ... .mkv": 4266207768, "12.Monkeys.S03E02.1080p.BluRay.X264-DEFLATE ... .mkv": 4264443191, "12.Monkeys.S03E03.1080p.BluRay.X264-DEFLATE ... .mkv": 4264227879, "12.Monkeys.S03E04.1080p.BluRay.X264-DEFLATE ... .mkv": 4266508280, "12.Monkeys.S03E05.1080p.BluRay.X264-DEFLATE ...
创建时间: 2018-11-01 11:05:01 大小:39.72 GB 文件数量:11 热度:29 最近下载:2024-03-14 14:59:01
    {"12.Monkeys.S04E01.WEBRip.720p.IdeaFilm.mkv": 2593978430, "12.Monkeys.S04E02.WEBRip.720p.IdeaFilm.mkv": 2600969350, "12.Monkeys.S04E03.WEBRip.720p.IdeaFilm.mkv": 2588631502}
创建时间: 2018-11-01 16:05:04 大小:7.25 GB 文件数量:3 热度:10 最近下载:2023-04-05 13:00:13
    ... .rmteam.mkv": 536381803, "12.monkeys.s04e05.1080p.web.hevc.x265 ... rmteam.mkv": 348135711, "12.monkeys.s04e06.1080p.web.hevc.x265 ... rmteam.mkv": 429541803, "12.monkeys.s04e07.1080p.web.hevc.x265 ... -PSA.mkv": 516326548, "12.Monkeys.S04E02.Ouroboros.1080p.10bit.WEBRip ...
创建时间: 2018-11-01 16:54:20 大小:3.81 GB 文件数量:9 热度:9 最近下载:2023-04-05 18:30:03
    {"07 - Riot Van.mp3": 5404255, "09 - Mardy Bum.mp3": 7024892, "04 - Dancing Shoes.mp3": 5652941, "13 - A Certain Romance.mp3": 13255619, "06 - Still Take You Home.mp3": 6953839, "11 - When The Sun Goes Down.mp3": 8008141, "01 - The View From The Afternoon. ...
创建时间: 2018-11-01 18:01:48 大小:94.03 MB 文件数量:13 热度:25 最近下载:2025-10-06 20:03:08
    {"12.Monkeys.s04e01.HDR1080p.WEBRip.x265.Rus.Eng.BaibaKo.tv.mkv": 4764311610, "12.Monkeys.s04e02.HDR1080p.WEBRip.x265.Rus.Eng.BaibaKo.tv.mkv": 6050875207, "12.Monkeys.s04e03.HDR1080p.WEBRip.x265.Rus.Eng.BaibaKo.tv.mkv": 4389570760}
创建时间: 2018-11-01 18:45:35 大小:14.16 GB 文件数量:3 热度:13 最近下载:2024-09-19 17:31:02
    {"RARBG.com.txt": 34, "12.Monkeys.S01E10.INTERNAL.720p.HDTV.x264-BATV.mkv": 940786814, "12.monkeys.s01e10.internal.720p.hdtv.x264-batv.nfo": 781}
创建时间: 2018-11-01 20:33:02 大小:897.2 MB 文件数量:3 热度:12 最近下载:2024-12-08 02:51:02
    ... ": 127063, "3_Eng.srt": 132753, "Twelve.Monkeys.1995.REMASTERED.1080p.BluRay.H264 ... .AAC-RARBG.idx": 80584, "Twelve.Monkeys.1995.REMASTERED.1080p.BluRay.H264 ... ": 13189120}, "RARBG.txt": 30, "Twelve.Monkeys.1995.REMASTERED.1080p.BluRay.H264 ...
创建时间: 2018-11-02 00:12:48 大小:2.48 GB 文件数量:6 热度:21 最近下载:2024-09-17 12:12:01